sensor_id;sensor_type;location;lat;lon;timestamp;pressure;altitude;pressure_sealevel;temperature;humidity
50105;BME280;47690;39.202;-77.198;2022-09-17T00:03:00;100663.00;;;48.96;12.56
50105;BME280;47690;39.202;-77.198;2022-09-17T00:08:03;100672.84;;;49.33;12.39
50105;BME280;47690;39.202;-77.198;2022-09-17T00:13:15;100672.56;;;49.30;12.58
50105;BME280;47690;39.202;-77.198;2022-09-17T00:18:46;100676.38;;;48.87;12.70
50105;BME280;47690;39.202;-77.198;2022-09-17T00:24:24;100680.97;;;48.76;13.16
50105;BME280;47690;39.202;-77.198;2022-09-17T00:35:04;100687.84;;;48.94;12.41
50105;BME280;47690;39.202;-77.198;2022-09-17T00:41:23;100705.09;;;48.95;12.89
50105;BME280;47690;39.202;-77.198;2022-09-17T00:52:25;100718.16;;;48.83;13.14
50105;BME280;47690;39.202;-77.198;2022-09-17T00:58:17;100720.66;;;49.05;12.60
50105;BME280;47690;39.202;-77.198;2022-09-17T01:32:07;100741.97;;;50.17;11.66
50105;BME280;47690;39.202;-77.198;2022-09-17T01:48:31;100749.03;;;48.14;12.85
50105;BME280;47690;39.202;-77.198;2022-09-17T01:54:09;100752.84;;;47.75;13.48
50105;BME280;47690;39.202;-77.198;2022-09-17T02:09:23;100759.59;;;48.05;13.09
50105;BME280;47690;39.202;-77.198;2022-09-17T02:30:59;100760.72;;;47.16;13.12
50105;BME280;47690;39.202;-77.198;2022-09-17T02:35:09;100758.22;;;46.87;13.19
50105;BME280;47690;39.202;-77.198;2022-09-17T02:40:56;100761.78;;;47.70;13.22
50105;BME280;47690;39.202;-77.198;2022-09-17T02:57:39;100761.44;;;47.62;13.17
50105;BME280;47690;39.202;-77.198;2022-09-17T03:03:15;100765.59;;;47.69;13.11
50105;BME280;47690;39.202;-77.198;2022-09-17T03:08:56;100771.53;;;47.33;13.05
50105;BME280;47690;39.202;-77.198;2022-09-17T03:14:11;100770.41;;;47.02;13.69
50105;BME280;47690;39.202;-77.198;2022-09-17T03:19:23;100772.31;;;47.01;13.37
50105;BME280;47690;39.202;-77.198;2022-09-17T03:24:42;100772.69;;;46.65;13.43
50105;BME280;47690;39.202;-77.198;2022-09-17T03:31:07;100776.22;;;47.38;12.61
50105;BME280;47690;39.202;-77.198;2022-09-17T03:54:14;100780.69;;;47.77;12.18
50105;BME280;47690;39.202;-77.198;2022-09-17T04:00:09;100786.16;;;47.50;12.52
50105;BME280;47690;39.202;-77.198;2022-09-17T04:06:09;100781.22;;;46.97;12.71
50105;BME280;47690;39.202;-77.198;2022-09-17T04:24:01;100776.94;;;47.28;12.00
50105;BME280;47690;39.202;-77.198;2022-09-17T04:28:50;100779.34;;;46.97;12.78
50105;BME280;47690;39.202;-77.198;2022-09-17T04:33:24;100777.81;;;47.07;12.67
50105;BME280;47690;39.202;-77.198;2022-09-17T04:37:32;100775.63;;;46.42;12.76
50105;BME280;47690;39.202;-77.198;2022-09-17T04:43:00;100782.38;;;46.39;13.11
50105;BME280;47690;39.202;-77.198;2022-09-17T04:48:43;100790.59;;;45.88;13.32
50105;BME280;47690;39.202;-77.198;2022-09-17T04:53:19;100788.34;;;45.67;13.68
50105;BME280;47690;39.202;-77.198;2022-09-17T04:57:15;100788.44;;;46.07;13.58
50105;BME280;47690;39.202;-77.198;2022-09-17T05:02:30;100786.28;;;46.09;13.36
50105;BME280;47690;39.202;-77.198;2022-09-17T05:07:30;100775.75;;;45.32;14.00
50105;BME280;47690;39.202;-77.198;2022-09-17T05:11:35;100780.97;;;45.51;13.25
50105;BME280;47690;39.202;-77.198;2022-09-17T05:16:54;100782.25;;;45.94;13.62
50105;BME280;47690;39.202;-77.198;2022-09-17T05:22:19;100790.47;;;45.19;13.66
50105;BME280;47690;39.202;-77.198;2022-09-17T05:37:10;100795.88;;;45.94;13.31
50105;BME280;47690;39.202;-77.198;2022-09-17T05:47:33;100791.44;;;45.13;13.47
50105;BME280;47690;39.202;-77.198;2022-09-17T05:57:49;100784.25;;;45.82;12.64
50105;BME280;47690;39.202;-77.198;2022-09-17T06:02:53;100784.81;;;45.38;13.33
50105;BME280;47690;39.202;-77.198;2022-09-17T06:14:00;100784.59;;;45.10;13.59
50105;BME280;47690;39.202;-77.198;2022-09-17T06:29:33;100778.28;;;45.39;13.46
50105;BME280;47690;39.202;-77.198;2022-09-17T06:38:20;100779.28;;;45.79;12.76
50105;BME280;47690;39.202;-77.198;2022-09-17T06:43:29;100780.94;;;45.34;13.06
50105;BME280;47690;39.202;-77.198;2022-09-17T06:48:32;100774.50;;;44.82;13.59
50105;BME280;47690;39.202;-77.198;2022-09-17T06:53:07;100785.41;;;44.99;13.26
50105;BME280;47690;39.202;-77.198;2022-09-17T07:04:57;100787.34;;;45.27;13.06
50105;BME280;47690;39.202;-77.198;2022-09-17T07:10:02;100798.94;;;44.70;13.74
50105;BME280;47690;39.202;-77.198;2022-09-17T07:15:51;100793.41;;;44.77;13.24
50105;BME280;47690;39.202;-77.198;2022-09-17T07:21:24;100787.38;;;44.51;13.73
50105;BME280;47690;39.202;-77.198;2022-09-17T07:26:54;100786.00;;;44.60;13.56
50105;BME280;47690;39.202;-77.198;2022-09-17T07:32:29;100786.22;;;44.70;13.12
50105;BME280;47690;39.202;-77.198;2022-09-17T07:38:04;100788.56;;;44.55;13.19
50105;BME280;47690;39.202;-77.198;2022-09-17T07:43:15;100793.38;;;44.05;13.45
50105;BME280;47690;39.202;-77.198;2022-09-17T07:51:49;100788.00;;;44.41;13.08
50105;BME280;47690;39.202;-77.198;2022-09-17T07:55:30;100799.16;;;44.08;13.77
50105;BME280;47690;39.202;-77.198;2022-09-17T08:05:17;100789.75;;;44.23;13.21
50105;BME280;47690;39.202;-77.198;2022-09-17T08:09:51;100801.84;;;43.85;13.33
50105;BME280;47690;39.202;-77.198;2022-09-17T08:13:27;100804.69;;;43.47;13.86
50105;BME280;47690;39.202;-77.198;2022-09-17T08:16:51;100799.03;;;43.30;13.80
50105;BME280;47690;39.202;-77.198;2022-09-17T08:25:23;100800.69;;;43.31;13.74
50105;BME280;47690;39.202;-77.198;2022-09-17T08:35:25;100797.63;;;43.58;13.69
50105;BME280;47690;39.202;-77.198;2022-09-17T08:39:47;100797.72;;;43.51;13.65
50105;BME280;47690;39.202;-77.198;2022-09-17T08:49:39;100816.50;;;43.96;13.27
50105;BME280;47690;39.202;-77.198;2022-09-17T09:00:45;100814.19;;;44.35;13.11
50105;BME280;47690;39.202;-77.198;2022-09-17T09:32:54;100836.16;;;43.79;13.56
50105;BME280;47690;39.202;-77.198;2022-09-17T09:42:32;100847.47;;;44.42;13.26
50105;BME280;47690;39.202;-77.198;2022-09-17T09:47:16;100848.09;;;44.44;13.10
50105;BME280;47690;39.202;-77.198;2022-09-17T09:51:24;100849.97;;;44.32;12.94
50105;BME280;47690;39.202;-77.198;2022-09-17T09:59:24;100852.56;;;43.53;13.37
50105;BME280;47690;39.202;-77.198;2022-09-17T10:12:23;100849.50;;;43.92;13.12
50105;BME280;47690;39.202;-77.198;2022-09-17T10:16:31;100854.66;;;43.51;13.41
50105;BME280;47690;39.202;-77.198;2022-09-17T10:20:51;100866.75;;;44.53;12.59
50105;BME280;47690;39.202;-77.198;2022-09-17T10:29:35;100855.91;;;43.98;13.12
50105;BME280;47690;39.202;-77.198;2022-09-17T10:34:18;100856.91;;;44.40;12.59
50105;BME280;47690;39.202;-77.198;2022-09-17T10:40:02;100849.94;;;44.92;12.58
50105;BME280;47690;39.202;-77.198;2022-09-17T10:53:53;100862.34;;;44.28;12.79
50105;BME280;47690;39.202;-77.198;2022-09-17T11:33:52;100890.31;;;43.86;13.07
50105;BME280;47690;39.202;-77.198;2022-09-17T11:38:40;100892.22;;;43.66;13.01
50105;BME280;47690;39.202;-77.198;2022-09-17T11:43:41;100897.19;;;44.55;12.67
50105;BME280;47690;39.202;-77.198;2022-09-17T11:52:23;100911.09;;;43.92;13.33
50105;BME280;47690;39.202;-77.198;2022-09-17T11:58:18;100903.94;;;44.10;13.13
50105;BME280;47690;39.202;-77.198;2022-09-17T12:23:53;100916.31;;;46.19;12.86
50105;BME280;47690;39.202;-77.198;2022-09-17T12:33:31;100925.66;;;48.13;11.86
50105;BME280;47690;39.202;-77.198;2022-09-17T13:17:58;100942.78;;;49.28;11.88
50105;BME280;47690;39.202;-77.198;2022-09-17T13:23:11;100933.91;;;48.57;12.42
50105;BME280;47690;39.202;-77.198;2022-09-17T13:46:41;100949.31;;;49.16;12.30
50105;BME280;47690;39.202;-77.198;2022-09-17T13:51:49;100941.31;;;49.04;12.42
50105;BME280;47690;39.202;-77.198;2022-09-17T13:57:25;100940.69;;;49.45;12.35
50105;BME280;47690;39.202;-77.198;2022-09-17T14:32:04;100958.88;;;50.29;12.45
50105;BME280;47690;39.202;-77.198;2022-09-17T14:37:29;100958.78;;;51.07;11.98
50105;BME280;47690;39.202;-77.198;2022-09-17T15:01:28;100961.25;;;51.64;11.39
50105;BME280;47690;39.202;-77.198;2022-09-17T15:07:14;100951.66;;;51.57;11.59
50105;BME280;47690;39.202;-77.198;2022-09-17T15:12:25;100943.31;;;51.72;11.60
50105;BME280;47690;39.202;-77.198;2022-09-17T15:17:35;100946.81;;;51.43;12.27
50105;BME280;47690;39.202;-77.198;2022-09-17T15:22:43;100933.06;;;51.38;11.84
50105;BME280;47690;39.202;-77.198;2022-09-17T15:33:35;100930.19;;;51.69;11.78
50105;BME280;47690;39.202;-77.198;2022-09-17T15:44:22;100925.63;;;51.49;12.10
50105;BME280;47690;39.202;-77.198;2022-09-17T16:17:48;100892.78;;;52.43;11.37
50105;BME280;47690;39.202;-77.198;2022-09-17T16:22:46;100889.16;;;52.18;11.05
50105;BME280;47690;39.202;-77.198;2022-09-17T16:28:02;100894.41;;;52.44;10.84
50105;BME280;47690;39.202;-77.198;2022-09-17T16:38:30;100890.88;;;52.87;10.43
50105;BME280;47690;39.202;-77.198;2022-09-17T16:42:37;100892.06;;;53.00;10.58
50105;BME280;47690;39.202;-77.198;2022-09-17T16:46:45;100887.31;;;57.61;8.32
50105;BME280;47690;39.202;-77.198;2022-09-17T16:51:17;100889.75;;;54.17;9.71
50105;BME280;47690;39.202;-77.198;2022-09-17T16:55:25;100885.16;;;52.59;10.92
50105;BME280;47690;39.202;-77.198;2022-09-17T16:58:59;100881.66;;;51.94;10.80
50105;BME280;47690;39.202;-77.198;2022-09-17T17:03:57;100867.06;;;51.99;10.50
50105;BME280;47690;39.202;-77.198;2022-09-17T17:09:07;100882.78;;;51.93;10.99
50105;BME280;47690;39.202;-77.198;2022-09-17T17:14:26;100869.09;;;52.47;10.33
50105;BME280;47690;39.202;-77.198;2022-09-17T17:18:30;100866.06;;;52.49;9.98
50105;BME280;47690;39.202;-77.198;2022-09-17T17:22:30;100861.09;;;54.46;8.91
50105;BME280;47690;39.202;-77.198;2022-09-17T17:26:28;100863.63;;;53.29;9.69
50105;BME280;47690;39.202;-77.198;2022-09-17T17:29:58;100860.91;;;52.85;10.24
50105;BME280;47690;39.202;-77.198;2022-09-17T17:39:24;100833.81;;;52.54;10.63
50105;BME280;47690;39.202;-77.198;2022-09-17T17:43:39;100824.44;;;53.57;10.10
50105;BME280;47690;39.202;-77.198;2022-09-17T17:46:49;100828.09;;;52.70;9.81
50105;BME280;47690;39.202;-77.198;2022-09-17T17:51:22;100813.25;;;52.71;10.14
50105;BME280;47690;39.202;-77.198;2022-09-17T17:54:55;100822.69;;;52.45;10.47
50105;BME280;47690;39.202;-77.198;2022-09-17T17:58:03;100815.75;;;51.94;10.89
50105;BME280;47690;39.202;-77.198;2022-09-17T18:01:30;100814.22;;;52.61;9.72
50105;BME280;47690;39.202;-77.198;2022-09-17T18:06:03;100816.06;;;52.90;9.88
50105;BME280;47690;39.202;-77.198;2022-09-17T18:10:00;100816.38;;;52.64;10.08
50105;BME280;47690;39.202;-77.198;2022-09-17T18:13:50;100802.56;;;52.50;10.50
50105;BME280;47690;39.202;-77.198;2022-09-17T18:17:25;100803.75;;;52.39;10.21
50105;BME280;47690;39.202;-77.198;2022-09-17T18:20:45;100806.50;;;52.39;10.65
50105;BME280;47690;39.202;-77.198;2022-09-17T18:24:26;100791.34;;;52.41;10.31
50105;BME280;47690;39.202;-77.198;2022-09-17T18:27:32;100790.81;;;52.20;10.92
50105;BME280;47690;39.202;-77.198;2022-09-17T18:30:31;100801.47;;;52.22;10.69
50105;BME280;47690;39.202;-77.198;2022-09-17T18:33:24;100793.59;;;52.15;10.67
50105;BME280;47690;39.202;-77.198;2022-09-17T18:37:28;100788.50;;;52.52;9.75
50105;BME280;47690;39.202;-77.198;2022-09-17T18:40:51;100787.22;;;52.20;10.18
50105;BME280;47690;39.202;-77.198;2022-09-17T18:43:41;100783.44;;;51.86;10.03
50105;BME280;47690;39.202;-77.198;2022-09-17T18:47:07;100781.19;;;51.93;10.55
50105;BME280;47690;39.202;-77.198;2022-09-17T18:50:23;100777.84;;;51.96;10.85
50105;BME280;47690;39.202;-77.198;2022-09-17T18:53:41;100776.19;;;52.25;10.02
50105;BME280;47690;39.202;-77.198;2022-09-17T18:57:44;100773.72;;;52.48;10.04
50105;BME280;47690;39.202;-77.198;2022-09-17T19:01:04;100766.00;;;52.69;9.70
50105;BME280;47690;39.202;-77.198;2022-09-17T19:04:24;100765.13;;;52.05;10.41
50105;BME280;47690;39.202;-77.198;2022-09-17T19:07:20;100765.84;;;51.87;9.40
50105;BME280;47690;39.202;-77.198;2022-09-17T19:10:55;100762.41;;;51.71;9.38
50105;BME280;47690;39.202;-77.198;2022-09-17T19:13:38;100767.41;;;51.39;9.41
50105;BME280;47690;39.202;-77.198;2022-09-17T19:16:45;100759.41;;;51.37;10.39
50105;BME280;47690;39.202;-77.198;2022-09-17T19:19:54;100756.88;;;51.81;10.59
50105;BME280;47690;39.202;-77.198;2022-09-17T19:22:51;100757.81;;;51.96;9.88
50105;BME280;47690;39.202;-77.198;2022-09-17T19:26:13;100753.66;;;51.74;10.18
50105;BME280;47690;39.202;-77.198;2022-09-17T19:29:52;100741.25;;;52.01;9.66
50105;BME280;47690;39.202;-77.198;2022-09-17T19:34:03;100737.75;;;51.95;9.51
50105;BME280;47690;39.202;-77.198;2022-09-17T19:38:13;100739.69;;;51.95;9.92
50105;BME280;47690;39.202;-77.198;2022-09-17T19:41:59;100743.91;;;51.57;9.48
50105;BME280;47690;39.202;-77.198;2022-09-17T19:45:02;100748.38;;;51.48;9.88
50105;BME280;47690;39.202;-77.198;2022-09-17T19:48:53;100741.91;;;51.63;10.28
50105;BME280;47690;39.202;-77.198;2022-09-17T19:51:54;100743.84;;;51.28;10.63
50105;BME280;47690;39.202;-77.198;2022-09-17T19:55:14;100743.66;;;51.83;10.09
50105;BME280;47690;39.202;-77.198;2022-09-17T19:59:01;100737.94;;;52.04;9.78
50105;BME280;47690;39.202;-77.198;2022-09-17T20:03:39;100739.63;;;52.24;9.96
50105;BME280;47690;39.202;-77.198;2022-09-17T20:08:31;100733.63;;;52.22;9.89
50105;BME280;47690;39.202;-77.198;2022-09-17T20:12:55;100733.22;;;52.10;9.98
50105;BME280;47690;39.202;-77.198;2022-09-17T20:21:45;100724.09;;;52.14;9.75
50105;BME280;47690;39.202;-77.198;2022-09-17T20:25:49;100718.06;;;51.88;10.12
50105;BME280;47690;39.202;-77.198;2022-09-17T20:29:35;100710.34;;;51.90;9.54
50105;BME280;47690;39.202;-77.198;2022-09-17T20:34:02;100704.09;;;51.84;9.68
50105;BME280;47690;39.202;-77.198;2022-09-17T20:44:02;100704.19;;;52.23;9.84
50105;BME280;47690;39.202;-77.198;2022-09-17T20:48:52;100694.44;;;52.36;9.56
50105;BME280;47690;39.202;-77.198;2022-09-17T20:53:14;100689.66;;;52.22;9.78
50105;BME280;47690;39.202;-77.198;2022-09-17T20:58:12;100687.81;;;52.17;10.20
50105;BME280;47690;39.202;-77.198;2022-09-17T21:03:00;100681.50;;;52.75;9.33
50105;BME280;47690;39.202;-77.198;2022-09-17T21:06:58;100685.28;;;52.21;9.65
50105;BME280;47690;39.202;-77.198;2022-09-17T21:11:02;100678.88;;;51.82;10.92
50105;BME280;47690;39.202;-77.198;2022-09-17T21:15:10;100680.59;;;51.73;10.17
50105;BME280;47690;39.202;-77.198;2022-09-17T21:20:11;100669.25;;;51.85;9.89
50105;BME280;47690;39.202;-77.198;2022-09-17T21:24:53;100671.13;;;51.60;11.28
50105;BME280;47690;39.202;-77.198;2022-09-17T21:29:25;100675.66;;;52.24;10.06
50105;BME280;47690;39.202;-77.198;2022-09-17T21:34:13;100681.25;;;51.89;10.92
50105;BME280;47690;39.202;-77.198;2022-09-17T21:37:55;100683.56;;;51.52;10.90
50105;BME280;47690;39.202;-77.198;2022-09-17T21:41:26;100673.44;;;51.77;10.74
50105;BME280;47690;39.202;-77.198;2022-09-17T21:46:45;100691.75;;;52.30;10.91
50105;BME280;47690;39.202;-77.198;2022-09-17T21:51:55;100686.41;;;51.96;10.54
50105;BME280;47690;39.202;-77.198;2022-09-17T21:57:27;100686.88;;;52.03;11.35
50105;BME280;47690;39.202;-77.198;2022-09-17T22:00:50;100677.66;;;51.40;11.11
50105;BME280;47690;39.202;-77.198;2022-09-17T22:05:18;100686.97;;;51.68;10.83
50105;BME280;47690;39.202;-77.198;2022-09-17T22:08:34;100691.38;;;51.40;11.59
50105;BME280;47690;39.202;-77.198;2022-09-17T22:14:20;100683.16;;;52.95;10.53
50105;BME280;47690;39.202;-77.198;2022-09-17T22:19:09;100684.72;;;52.82;10.19
50105;BME280;47690;39.202;-77.198;2022-09-17T22:23:46;100690.53;;;51.69;11.02
50105;BME280;47690;39.202;-77.198;2022-09-17T22:27:50;100689.50;;;52.13;10.20
50105;BME280;47690;39.202;-77.198;2022-09-17T22:32:15;100689.91;;;52.26;10.49
50105;BME280;47690;39.202;-77.198;2022-09-17T22:36:29;100677.56;;;51.15;11.12
50105;BME280;47690;39.202;-77.198;2022-09-17T22:40:35;100681.47;;;50.64;11.12
50105;BME280;47690;39.202;-77.198;2022-09-17T22:44:26;100680.00;;;50.37;11.54
50105;BME280;47690;39.202;-77.198;2022-09-17T22:47:28;100679.28;;;49.95;11.74
50105;BME280;47690;39.202;-77.198;2022-09-17T22:50:39;100681.25;;;49.89;12.09
50105;BME280;47690;39.202;-77.198;2022-09-17T22:54:33;100682.88;;;49.95;11.52
50105;BME280;47690;39.202;-77.198;2022-09-17T22:58:17;100679.09;;;49.75;12.13
50105;BME280;47690;39.202;-77.198;2022-09-17T23:01:46;100668.97;;;49.76;11.60
50105;BME280;47690;39.202;-77.198;2022-09-17T23:05:49;100673.09;;;49.73;11.88
50105;BME280;47690;39.202;-77.198;2022-09-17T23:09:12;100674.19;;;49.62;11.39
50105;BME280;47690;39.202;-77.198;2022-09-17T23:14:23;100668.63;;;49.98;11.94
50105;BME280;47690;39.202;-77.198;2022-09-17T23:17:42;100669.56;;;49.37;11.92
50105;BME280;47690;39.202;-77.198;2022-09-17T23:21:10;100662.72;;;49.08;12.15
50105;BME280;47690;39.202;-77.198;2022-09-17T23:25:28;100672.56;;;49.51;11.57
50105;BME280;47690;39.202;-77.198;2022-09-17T23:29:43;100673.66;;;49.44;12.11
50105;BME280;47690;39.202;-77.198;2022-09-17T23:34:38;100669.00;;;49.29;12.03
50105;BME280;47690;39.202;-77.198;2022-09-17T23:39:45;100680.75;;;48.99;12.25
50105;BME280;47690;39.202;-77.198;2022-09-17T23:45:24;100680.47;;;49.52;11.79
50105;BME280;47690;39.202;-77.198;2022-09-17T23:50:53;100678.88;;;49.61;12.08
50105;BME280;47690;39.202;-77.198;2022-09-17T23:56:27;100682.94;;;49.02;12.17
